Strona główna
METAR-TAF:

METAR-TAF

Lotnisko :

Port lotniczy Bahrajn

Bahrajn, Bahrajn

Szerokość geograficzna: 26-16N, Długość geograficzna: 050-39E, wysokość: 2 m

Aktualna obserwacja pogody

Raport powstał 24 minut temu, godzina 19:30 UTC
Wiatr 3 kt od zachodnio-południowy zachód
Temperatura 33°C
Wilgotność 46%
Ciśnienie 999 hPa
Widzialność: 7000 m
bezchmurnie

METAR: OBBI 251930Z 24003KT 7000 SKC 33/20 Q0999 NOSIG

czas: 22:54 (19:54 UTC)

Prognoza

Raport powstał 2 godziny i 54 minut temu, godzina 17:00 UTC
Prognoza ważna od 25 godzina 18 UTC do 27 godzina 00 UTC
Wiatr 5 kt z kierunków zmiennych
Widzialność 10 km lub więcej
Brak chmur poniżej 1500 m i brak chmur cumulonimbus
Stopniowe zmiany
od 26 godzina 04 UTC do 26 godzina 06 UTC
Wiatr 12 kt od północny zachód

TAF: OBBI 251700Z 2518/2700 VRB05KT CAVOK BECMG 2604/2606 32012KT

Obserwacja i prognoza pogody dla ponad 4000 lotnisk (raport METAR i TAF).

Dostępne stacje oznaczono żółtymi i czerwonymi punktami na mapie.

Najedź kursorem aby zobaczyć nazwę stacji.

Kliknij aby zobaczyć obserwacje i prognozy pogody.

Aby zmienić mapę: kliknij na zielony przycisk z czarnym krzyżykiem, aby powiększyć; na zielony przycisk z myślnikiem, aby pomniejszyć; na zielone strzałki, aby przejść do map sąsiednich.


METAR-TAF: